Time;durP1;ratioP1;P1;durP2;ratioP2;P2;SDS_P1;SDS_P2;PMS_P1;PMS_P2;Temp;Humidity;BMP_temperature;BMP_pressure;BME280_temperature;BME280_humidity;BME280_pressure;Samples;Min_cycle;Max_cycle;Signal;HPM_P1;HPM_P2
2021/09/10 00:01:49;;;;;;;10.65;7.45;;;;;;;;;;5016819;28;20047;-44
2021/09/10 00:04:15;;;;;;;14.65;8.40;;;;;;;;;;5016238;28;20069;-44
2021/09/10 00:06:40;;;;;;;16.17;9.23;;;;;;;;;;5019690;28;20464;-42
2021/09/10 00:09:05;;;;;;;13.10;6.40;;;;;;;;;;5020464;28;20504;-44
2021/09/10 00:11:31;;;;;;;32.90;9.15;;;;;;;;;;5017692;28;20030;-46
2021/09/10 00:13:56;;;;;;;13.77;9.38;;;;;;;;;;5021411;28;20071;-42
2021/09/10 00:16:22;;;;;;;21.25;8.13;;;;;;;;;;5021606;28;20024;-44
2021/09/10 00:18:48;;;;;;;11.15;8.13;;;;;;;;;;5017980;28;20378;-41
2021/09/10 00:21:13;;;;;;;14.85;8.48;;;;;;;;;;5016218;28;20104;-41
2021/09/10 00:23:38;;;;;;;19.17;8.75;;;;;;;;;;5013569;28;20037;-43
2021/09/10 00:26:04;;;;;;;10.95;8.10;;;;;;;;;;5012753;28;20080;-44
2021/09/10 00:28:29;;;;;;;15.25;7.88;;;;;;;;;;5016376;28;20053;-42
2021/09/10 00:30:55;;;;;;;15.40;9.52;;;;;;;;;;5020946;28;20433;-44
2021/09/10 00:33:20;;;;;;;18.40;8.52;;;;;;;;;;5013952;28;20076;-42
2021/09/10 00:35:45;;;;;;;13.43;10.65;;;;;;;;;;5019953;28;20436;-44
2021/09/10 00:38:10;;;;;;;24.55;10.00;;;;;;;;;;5024742;28;20028;-43
2021/09/10 00:40:36;;;;;;;11.63;7.80;;;;;;;;;;5019852;28;20560;-44
2021/09/10 00:43:01;;;;;;;27.83;9.48;;;;;;;;;;5020359;28;20034;-43
2021/09/10 00:45:27;;;;;;;9.43;6.47;;;;;;;;;;5018041;28;20029;-45
2021/09/10 00:47:53;;;;;;;26.08;8.80;;;;;;;;;;5019930;28;20022;-44
2021/09/10 00:50:19;;;;;;;11.35;8.35;;;;;;;;;;5011296;28;20017;-42
2021/09/10 00:52:44;;;;;;;10.43;8.00;;;;;;;;;;5018992;28;20471;-41
2021/09/10 00:55:09;;;;;;;12.18;9.43;;;;;;;;;;5015396;28;20026;-43
2021/09/10 00:57:35;;;;;;;13.93;7.65;;;;;;;;;;5017373;28;20031;-42
2021/09/10 01:00:00;;;;;;;16.75;7.88;;;;;;;;;;5023837;28;20026;-43
2021/09/10 01:02:26;;;;;;;15.00;8.48;;;;;;;;;;5008208;28;20025;-44
2021/09/10 01:04:51;;;;;;;11.77;8.93;;;;;;;;;;4999311;28;20046;-44
2021/09/10 01:07:17;;;;;;;17.98;8.45;;;;;;;;;;5006704;28;20030;-42
2021/09/10 01:09:43;;;;;;;58.90;53.35;;;;;;;;;;5022166;28;20029;-42
2021/09/10 01:12:09;;;;;;;18.48;9.43;;;;;;;;;;5014169;28;20026;-45
2021/09/10 01:14:34;;;;;;;13.32;8.77;;;;;;;;;;5019931;28;20022;-46
2021/09/10 01:17:00;;;;;;;19.15;9.88;;;;;;;;;;5016709;28;20025;-46
2021/09/10 01:19:30;;;;;;;11.23;9.20;;;;;;;;;;5014201;28;20065;-43
2021/09/10 01:21:56;;;;;;;17.42;11.90;;;;;;;;;;5012566;28;20406;-41
2021/09/10 01:24:29;;;;;;;14.80;7.63;;;;;;;;;;5012453;28;20034;-44
2021/09/10 01:26:54;;;;;;;9.02;8.02;;;;;;;;;;5011391;28;20029;-42
2021/09/10 01:29:20;;;;;;;18.38;10.13;;;;;;;;;;5010309;28;20138;-42
2021/09/10 01:31:45;;;;;;;21.80;10.25;;;;;;;;;;5017360;28;20509;-43
2021/09/10 01:34:10;;;;;;;17.42;9.25;;;;;;;;;;5019678;28;20489;-42
2021/09/10 01:36:36;;;;;;;16.52;10.50;;;;;;;;;;5018195;28;20029;-43
2021/09/10 01:39:01;;;;;;;10.32;7.95;;;;;;;;;;5014192;28;20030;-42
2021/09/10 01:41:26;;;;;;;15.55;9.40;;;;;;;;;;5017973;28;20049;-42
2021/09/10 01:43:51;;;;;;;18.80;9.73;;;;;;;;;;5023041;28;20025;-44
2021/09/10 01:46:17;;;;;;;16.73;8.57;;;;;;;;;;5022850;28;20041;-42
2021/09/10 01:48:42;;;;;;;10.98;9.15;;;;;;;;;;5021879;28;20377;-46
2021/09/10 01:51:07;;;;;;;12.18;8.57;;;;;;;;;;5006528;28;20543;-45
2021/09/10 01:53:33;;;;;;;14.05;10.00;;;;;;;;;;5021049;28;20065;-42
2021/09/10 01:55:58;;;;;;;19.40;10.45;;;;;;;;;;5017355;28;20022;-46
2021/09/10 01:58:23;;;;;;;20.65;8.05;;;;;;;;;;5018105;28;20108;-49
2021/09/10 02:00:50;;;;;;;25.70;8.57;;;;;;;;;;5015555;28;20532;-47
2021/09/10 02:03:15;;;;;;;12.90;8.73;;;;;;;;;;5015885;28;20413;-44
2021/09/10 02:05:40;;;;;;;19.08;9.20;;;;;;;;;;5020711;28;20031;-46
2021/09/10 02:08:06;;;;;;;18.83;9.18;;;;;;;;;;5024759;28;20107;-46
2021/09/10 02:10:31;;;;;;;28.55;8.90;;;;;;;;;;5019992;28;20033;-46
2021/09/10 02:12:56;;;;;;;9.13;8.18;;;;;;;;;;5019233;28;20033;-46
2021/09/10 02:15:22;;;;;;;15.10;9.20;;;;;;;;;;5017548;28;20719;-44
2021/09/10 02:17:47;;;;;;;17.88;9.88;;;;;;;;;;5015400;28;20079;-47
2021/09/10 02:20:12;;;;;;;10.05;8.63;;;;;;;;;;5020354;28;20543;-48
2021/09/10 02:22:37;;;;;;;28.13;10.43;;;;;;;;;;5020036;28;20022;-46
2021/09/10 02:25:03;;;;;;;12.82;9.80;;;;;;;;;;5023262;28;20025;-45
2021/09/10 02:27:28;;;;;;;19.60;9.38;;;;;;;;;;5015496;28;20392;-47
2021/09/10 02:29:54;;;;;;;12.13;7.32;;;;;;;;;;5018433;28;20362;-45
2021/09/10 02:32:19;;;;;;;14.82;7.05;;;;;;;;;;5021308;28;20442;-45
2021/09/10 02:34:44;;;;;;;17.33;8.40;;;;;;;;;;5019511;28;20022;-45
2021/09/10 02:37:10;;;;;;;21.08;8.27;;;;;;;;;;5008749;28;20026;-43
2021/09/10 02:39:36;;;;;;;12.65;8.45;;;;;;;;;;5009491;28;20080;-45
2021/09/10 02:42:01;;;;;;;10.32;8.80;;;;;;;;;;5015263;28;20087;-43
2021/09/10 02:44:26;;;;;;;16.33;9.07;;;;;;;;;;5026030;28;20026;-47
2021/09/10 02:46:53;;;;;;;12.93;8.23;;;;;;;;;;5021008;28;20575;-46
2021/09/10 02:49:18;;;;;;;13.13;8.10;;;;;;;;;;5014541;28;20048;-42
2021/09/10 02:51:44;;;;;;;15.52;9.50;;;;;;;;;;5016857;28;20030;-42
2021/09/10 02:54:10;;;;;;;22.02;10.10;;;;;;;;;;5023930;28;20514;-43
2021/09/10 02:56:35;;;;;;;17.42;8.40;;;;;;;;;;5024536;28;20044;-44
2021/09/10 02:59:00;;;;;;;8.65;5.72;;;;;;;;;;5021004;28;20072;-44
2021/09/10 03:01:25;;;;;;;18.95;8.70;;;;;;;;;;5010763;28;20604;-44
2021/09/10 03:03:51;;;;;;;20.95;8.50;;;;;;;;;;5017259;28;20489;-44
2021/09/10 03:06:16;;;;;;;20.23;10.05;;;;;;;;;;5016982;28;20026;-42
2021/09/10 03:08:42;;;;;;;12.00;7.07;;;;;;;;;;5012869;28;20029;-45
2021/09/10 03:11:09;;;;;;;15.27;11.25;;;;;;;;;;5017086;28;20018;-47
2021/09/10 03:13:34;;;;;;;15.40;7.95;;;;;;;;;;5018292;28;20029;-43
2021/09/10 03:15:59;;;;;;;14.82;9.27;;;;;;;;;;5019522;28;20029;-42
2021/09/10 03:18:24;;;;;;;21.20;10.88;;;;;;;;;;5022202;28;20425;-43
2021/09/10 03:20:50;;;;;;;17.25;10.38;;;;;;;;;;5019393;28;20065;-45
2021/09/10 03:23:15;;;;;;;14.95;10.45;;;;;;;;;;5014990;28;20030;-43
2021/09/10 03:25:42;;;;;;;20.38;9.88;;;;;;;;;;5022429;28;20552;-43
2021/09/10 03:28:08;;;;;;;17.70;9.70;;;;;;;;;;5012943;28;20022;-43
2021/09/10 03:30:33;;;;;;;17.90;11.95;;;;;;;;;;5014159;28;20410;-42
2021/09/10 03:32:58;;;;;;;18.52;10.55;;;;;;;;;;5015837;28;20583;-41
2021/09/10 03:35:24;;;;;;;20.63;9.73;;;;;;;;;;5016845;28;20281;-42
2021/09/10 03:37:49;;;;;;;31.35;13.20;;;;;;;;;;5012696;28;20062;-42
2021/09/10 03:40:14;;;;;;;20.63;10.82;;;;;;;;;;5016292;28;20028;-44
2021/09/10 03:42:40;;;;;;;24.88;10.50;;;;;;;;;;5019313;28;20036;-46
2021/09/10 03:45:05;;;;;;;26.02;13.15;;;;;;;;;;5024029;28;20030;-47
2021/09/10 03:47:30;;;;;;;24.08;10.30;;;;;;;;;;5025891;28;20474;-46
2021/09/10 03:49:56;;;;;;;12.25;9.13;;;;;;;;;;5020644;28;20017;-44
2021/09/10 03:52:21;;;;;;;19.42;11.68;;;;;;;;;;5016283;28;20091;-43
2021/09/10 03:54:46;;;;;;;15.85;11.93;;;;;;;;;;5017462;28;20075;-45
2021/09/10 03:57:12;;;;;;;24.52;11.18;;;;;;;;;;5018792;28;20021;-47
2021/09/10 03:59:37;;;;;;;17.67;10.85;;;;;;;;;;5013410;28;20745;-49
2021/09/10 04:02:02;;;;;;;23.88;11.35;;;;;;;;;;5015602;28;20029;-44
2021/09/10 04:04:28;;;;;;;14.23;9.48;;;;;;;;;;5022129;28;20049;-43
2021/09/10 04:06:53;;;;;;;16.35;10.27;;;;;;;;;;5021896;28;20037;-42
2021/09/10 04:09:18;;;;;;;23.40;11.25;;;;;;;;;;5017833;28;20097;-41
2021/09/10 04:11:44;;;;;;;16.77;11.90;;;;;;;;;;5002382;28;20045;-44
2021/09/10 04:14:09;;;;;;;21.83;10.23;;;;;;;;;;5016710;28;20537;-45
2021/09/10 04:16:35;;;;;;;11.68;9.77;;;;;;;;;;5022827;28;20033;-42
2021/09/10 04:19:00;;;;;;;14.35;9.55;;;;;;;;;;5024333;28;20685;-44
2021/09/10 04:21:26;;;;;;;11.85;9.50;;;;;;;;;;5010295;28;20826;-47
2021/09/10 04:23:51;;;;;;;11.93;10.38;;;;;;;;;;5012823;28;20688;-42
2021/09/10 04:26:16;;;;;;;12.20;10.90;;;;;;;;;;5016695;28;20084;-44
2021/09/10 04:28:46;;;;;;;14.73;10.40;;;;;;;;;;5022216;28;20026;-43
2021/09/10 04:31:11;;;;;;;18.23;12.02;;;;;;;;;;5017959;28;20028;-42
2021/09/10 04:33:37;;;;;;;16.80;14.95;;;;;;;;;;5015299;28;20025;-41
2021/09/10 04:36:02;;;;;;;19.00;13.77;;;;;;;;;;5014185;28;20058;-42
2021/09/10 04:38:27;;;;;;;15.10;11.63;;;;;;;;;;5017036;28;20077;-44
2021/09/10 04:40:53;;;;;;;14.82;11.05;;;;;;;;;;5014137;28;20105;-43
2021/09/10 04:43:18;;;;;;;20.38;12.27;;;;;;;;;;5011322;28;20249;-42
2021/09/10 04:45:43;;;;;;;21.70;9.38;;;;;;;;;;5016479;28;20038;-43
2021/09/10 04:48:08;;;;;;;17.85;11.70;;;;;;;;;;5021599;28;20053;-44
2021/09/10 04:50:34;;;;;;;19.23;10.02;;;;;;;;;;5021805;28;20486;-43
2021/09/10 04:52:59;;;;;;;16.77;13.60;;;;;;;;;;5015822;28;20491;-43
2021/09/10 04:55:24;;;;;;;24.25;8.93;;;;;;;;;;5016809;28;20017;-43
2021/09/10 04:57:50;;;;;;;17.85;11.35;;;;;;;;;;5015606;28;20030;-46
2021/09/10 05:00:15;;;;;;;14.45;11.25;;;;;;;;;;5020355;28;20025;-41
2021/09/10 05:02:41;;;;;;;27.58;11.20;;;;;;;;;;5016339;28;20026;-42
2021/09/10 05:05:07;;;;;;;13.98;10.68;;;;;;;;;;5007653;28;20046;-46
2021/09/10 05:07:32;;;;;;;21.05;11.73;;;;;;;;;;5022862;28;20056;-43
2021/09/10 05:09:57;;;;;;;32.53;13.45;;;;;;;;;;5016454;28;20033;-46
2021/09/10 05:12:23;;;;;;;17.20;11.63;;;;;;;;;;5018068;28;20136;-44
2021/09/10 05:14:57;;;;;;;24.48;11.88;;;;;;;;;;5021722;28;20026;-46
2021/09/10 05:17:22;;;;;;;12.35;10.85;;;;;;;;;;5017705;28;20022;-43
2021/09/10 05:19:48;;;;;;;16.85;13.63;;;;;;;;;;5023637;28;20028;-45
2021/09/10 05:22:13;;;;;;;18.00;11.30;;;;;;;;;;5014375;28;20036;-43
2021/09/10 05:24:42;;;;;;;17.98;11.02;;;;;;;;;;5019250;28;20052;-44
2021/09/10 05:27:07;;;;;;;16.27;9.38;;;;;;;;;;5024938;28;20393;-45
2021/09/10 05:29:32;;;;;;;15.65;10.18;;;;;;;;;;5018918;28;20021;-43
2021/09/10 05:31:58;;;;;;;20.73;10.73;;;;;;;;;;5021041;28;20014;-49
2021/09/10 05:34:23;;;;;;;27.08;12.10;;;;;;;;;;5024025;28;20037;-48
2021/09/10 05:36:48;;;;;;;15.45;10.80;;;;;;;;;;5019115;28;20029;-49
2021/09/10 05:39:14;;;;;;;15.30;11.10;;;;;;;;;;5019111;28;20064;-48
2021/09/10 05:41:39;;;;;;;17.60;11.80;;;;;;;;;;5020076;28;20035;-49
2021/09/10 05:44:04;;;;;;;17.63;11.52;;;;;;;;;;5019525;28;20062;-48
2021/09/10 05:46:30;;;;;;;13.38;11.98;;;;;;;;;;5025410;28;20021;-50
2021/09/10 05:48:55;;;;;;;12.27;10.63;;;;;;;;;;5022381;28;20060;-49
2021/09/10 05:51:20;;;;;;;21.00;12.77;;;;;;;;;;5023385;28;20130;-45
2021/09/10 05:53:46;;;;;;;24.92;13.02;;;;;;;;;;5018174;28;20104;-48
2021/09/10 05:56:11;;;;;;;20.77;12.57;;;;;;;;;;5014455;28;20469;-49
2021/09/10 05:58:36;;;;;;;29.70;12.63;;;;;;;;;;5018824;28;20033;-50
2021/09/10 06:01:01;;;;;;;22.55;12.23;;;;;;;;;;5018694;28;20360;-46
2021/09/10 06:03:27;;;;;;;14.63;11.98;;;;;;;;;;5024434;28;20038;-48
2021/09/10 06:05:52;;;;;;;25.33;13.35;;;;;;;;;;5018049;28;20026;-47
2021/09/10 06:08:17;;;;;;;20.80;11.93;;;;;;;;;;5019172;28;20045;-45
2021/09/10 06:10:45;;;;;;;17.92;11.48;;;;;;;;;;5017456;28;20515;-46
2021/09/10 06:13:10;;;;;;;10.13;9.02;;;;;;;;;;5014175;28;20022;-45
2021/09/10 06:15:35;;;;;;;24.83;12.68;;;;;;;;;;5021150;28;20029;-44
2021/09/10 06:18:01;;;;;;;22.45;11.38;;;;;;;;;;5015113;28;20045;-43
2021/09/10 06:20:26;;;;;;;12.15;10.25;;;;;;;;;;5011871;28;20041;-44
2021/09/10 06:22:51;;;;;;;23.92;12.38;;;;;;;;;;5020371;28;20034;-44
2021/09/10 06:25:17;;;;;;;33.15;29.08;;;;;;;;;;5013037;28;20025;-45
2021/09/10 06:27:42;;;;;;;23.35;12.02;;;;;;;;;;5011858;28;20705;-48
2021/09/10 06:30:08;;;;;;;21.58;13.50;;;;;;;;;;5016320;28;20044;-46
2021/09/10 06:32:34;;;;;;;20.00;12.93;;;;;;;;;;5014978;28;20064;-45
2021/09/10 06:34:59;;;;;;;24.13;11.52;;;;;;;;;;5009188;28;20037;-49
2021/09/10 06:37:25;;;;;;;12.32;8.73;;;;;;;;;;5007212;28;20620;-50
2021/09/10 06:39:51;;;;;;;35.78;10.00;;;;;;;;;;5012801;28;20033;-45
2021/09/10 06:42:16;;;;;;;27.48;11.18;;;;;;;;;;5015915;28;20086;-44
2021/09/10 06:44:41;;;;;;;16.73;12.25;;;;;;;;;;5018189;28;20174;-45
2021/09/10 06:47:07;;;;;;;31.73;9.73;;;;;;;;;;5020267;28;20094;-47
2021/09/10 06:49:32;;;;;;;15.60;11.65;;;;;;;;;;5023306;28;20049;-52
2021/09/10 06:51:58;;;;;;;21.52;9.75;;;;;;;;;;5020756;28;20516;-45
2021/09/10 06:54:23;;;;;;;17.33;9.45;;;;;;;;;;5011515;28;20022;-43
2021/09/10 06:56:48;;;;;;;26.35;9.98;;;;;;;;;;5018898;28;20028;-44
2021/09/10 06:59:17;;;;;;;17.77;8.85;;;;;;;;;;5013952;28;20501;-44
2021/09/10 07:01:43;;;;;;;14.38;9.82;;;;;;;;;;5014396;28;20029;-47
2021/09/10 07:04:08;;;;;;;18.40;9.85;;;;;;;;;;5020749;28;20417;-49
2021/09/10 07:06:33;;;;;;;35.15;14.18;;;;;;;;;;5014888;28;20110;-48
2021/09/10 07:08:58;;;;;;;14.75;9.13;;;;;;;;;;5015621;28;20142;-47
2021/09/10 07:11:24;;;;;;;23.50;10.23;;;;;;;;;;5010866;28;20144;-47
2021/09/10 07:13:49;;;;;;;21.50;9.55;;;;;;;;;;5016303;28;20025;-49
2021/09/10 07:16:15;;;;;;;13.63;10.15;;;;;;;;;;5017895;28;20416;-49
2021/09/10 07:18:40;;;;;;;15.32;11.02;;;;;;;;;;5015586;28;20029;-47
2021/09/10 07:21:06;;;;;;;34.85;14.32;;;;;;;;;;5013266;28;20030;-46
2021/09/10 07:23:32;;;;;;;23.20;10.85;;;;;;;;;;5017569;28;20926;-58
2021/09/10 07:26:02;;;;;;;23.33;14.35;;;;;;;;;;5016834;28;20153;-58
2021/09/10 07:28:31;;;;;;;29.80;14.20;;;;;;;;;;5017198;28;20018;-58
2021/09/10 07:30:56;;;;;;;22.02;18.20;;;;;;;;;;5011752;28;20036;-55
2021/09/10 07:33:21;;;;;;;21.65;14.65;;;;;;;;;;5013499;28;20017;-66
2021/09/10 07:35:47;;;;;;;35.95;23.10;;;;;;;;;;5013867;28;20650;-72
2021/09/10 07:38:12;;;;;;;13.20;8.68;;;;;;;;;;5012785;28;20036;-58
2021/09/10 07:40:37;;;;;;;30.90;12.43;;;;;;;;;;5015751;28;20040;-58
2021/09/10 07:43:03;;;;;;;11.77;10.43;;;;;;;;;;5016504;28;20374;-57
2021/09/10 07:45:28;;;;;;;8.93;7.68;;;;;;;;;;5016652;28;20760;-58
2021/09/10 07:47:53;;;;;;;16.88;8.90;;;;;;;;;;5018515;28;20018;-58
2021/09/10 07:50:18;;;;;;;10.65;6.97;;;;;;;;;;5016193;28;20032;-58
2021/09/10 07:52:44;;;;;;;10.98;7.55;;;;;;;;;;5018181;28;20033;-58
2021/09/10 07:55:09;;;;;;;9.77;7.10;;;;;;;;;;5021850;28;20018;-58
2021/09/10 07:57:34;;;;;;;10.90;7.85;;;;;;;;;;5019904;28;20053;-58
2021/09/10 08:00:00;;;;;;;14.48;8.05;;;;;;;;;;5012418;28;20069;-58
2021/09/10 08:02:28;;;;;;;12.27;8.73;;;;;;;;;;5015360;28;20061;-58
2021/09/10 08:04:54;;;;;;;16.85;12.57;;;;;;;;;;5018294;28;20053;-57
2021/09/10 08:07:20;;;;;;;20.00;10.68;;;;;;;;;;5007992;28;20064;-58
2021/09/10 08:09:45;;;;;;;23.40;15.73;;;;;;;;;;5015730;28;20076;-58
2021/09/10 08:12:10;;;;;;;17.25;13.38;;;;;;;;;;5013200;28;20032;-58
2021/09/10 08:14:35;;;;;;;7.85;7.15;;;;;;;;;;5015034;28;20080;-58
2021/09/10 08:17:01;;;;;;;12.65;7.45;;;;;;;;;;5013131;28;20018;-58
2021/09/10 08:19:26;;;;;;;22.48;10.68;;;;;;;;;;5013517;28;20026;-58
2021/09/10 08:21:51;;;;;;;21.02;8.93;;;;;;;;;;5012492;28;20040;-58
2021/09/10 08:24:17;;;;;;;13.07;8.68;;;;;;;;;;5010151;28;20526;-58
2021/09/10 08:26:42;;;;;;;25.23;15.30;;;;;;;;;;5020854;28;20034;-58
2021/09/10 08:29:07;;;;;;;13.30;8.95;;;;;;;;;;5013745;28;20025;-58
2021/09/10 08:31:33;;;;;;;35.47;12.05;;;;;;;;;;5020385;28;20493;-58
2021/09/10 08:33:58;;;;;;;12.43;7.35;;;;;;;;;;5017807;28;20014;-58
2021/09/10 08:36:24;;;;;;;13.38;7.22;;;;;;;;;;5018025;28;20437;-58
2021/09/10 08:38:49;;;;;;;6.78;5.57;;;;;;;;;;5015104;28;20032;-58
2021/09/10 08:41:15;;;;;;;12.00;7.72;;;;;;;;;;5013175;28;20030;-57
2021/09/10 08:43:49;;;;;;;19.95;10.38;;;;;;;;;;5013968;28;20026;-57
2021/09/10 08:46:15;;;;;;;6.80;6.10;;;;;;;;;;5012620;28;20037;-58
2021/09/10 08:48:44;;;;;;;17.77;6.65;;;;;;;;;;5011653;28;20033;-58
2021/09/10 08:51:10;;;;;;;11.98;6.70;;;;;;;;;;5024066;28;20034;-58
2021/09/10 08:53:35;;;;;;;12.07;7.38;;;;;;;;;;5024247;28;20370;-58
2021/09/10 08:56:01;;;;;;;16.58;8.15;;;;;;;;;;5021832;28;20116;-58
2021/09/10 08:58:26;;;;;;;4.88;4.38;;;;;;;;;;5019384;28;20018;-58
2021/09/10 09:00:51;;;;;;;18.35;6.65;;;;;;;;;;5016831;28;20496;-59
2021/09/10 09:03:17;;;;;;;16.13;8.80;;;;;;;;;;5017892;28;20107;-58
2021/09/10 09:05:42;;;;;;;10.68;5.75;;;;;;;;;;5019373;28;20523;-58
2021/09/10 09:08:09;;;;;;;9.80;7.07;;;;;;;;;;5019701;28;20022;-58
2021/09/10 09:10:53;;;;;;;45.28;14.23;;;;;;;;;;5021430;28;20018;-57
2021/09/10 09:13:19;;;;;;;7.80;5.35;;;;;;;;;;5020419;28;20070;-58
2021/09/10 09:15:44;;;;;;;7.18;5.18;;;;;;;;;;5017489;28;20014;-58
2021/09/10 09:18:10;;;;;;;25.98;9.38;;;;;;;;;;5018562;28;20600;-58
2021/09/10 09:20:35;;;;;;;9.63;8.52;;;;;;;;;;5018116;28;20029;-58
2021/09/10 09:23:02;;;;;;;14.55;9.25;;;;;;;;;;5018701;28;20149;-58
2021/09/10 09:25:35;;;;;;;10.57;5.90;;;;;;;;;;5020527;28;20028;-59
2021/09/10 09:28:20;;;;;;;9.85;5.95;;;;;;;;;;5023726;28;20117;-58
2021/09/10 09:30:46;;;;;;;7.15;4.18;;;;;;;;;;5018083;28;20029;-58
2021/09/10 09:33:14;;;;;;;15.82;6.03;;;;;;;;;;5019466;28;20014;-58
2021/09/10 09:35:40;;;;;;;9.65;5.93;;;;;;;;;;5019856;28;20018;-59
2021/09/10 09:38:10;;;;;;;20.48;5.95;;;;;;;;;;5014685;28;20032;-59
2021/09/10 09:40:35;;;;;;;9.65;7.97;;;;;;;;;;5011890;28;20369;-59
2021/09/10 09:43:14;;;;;;;18.35;16.25;;;;;;;;;;5020194;28;20652;-59
2021/09/10 09:45:39;;;;;;;16.20;4.88;;;;;;;;;;5013313;28;20049;-59
2021/09/10 09:48:08;;;;;;;13.02;7.75;;;;;;;;;;5016462;28;20533;-59
2021/09/10 09:50:34;;;;;;;10.30;6.45;;;;;;;;;;5020329;28;20044;-59
2021/09/10 09:53:01;;;;;;;19.10;7.47;;;;;;;;;;5024335;28;20397;-59
2021/09/10 09:55:26;;;;;;;16.90;6.82;;;;;;;;;;5024195;28;20025;-59
2021/09/10 09:57:52;;;;;;;12.65;6.90;;;;;;;;;;5021807;28;20045;-59
2021/09/10 10:00:17;;;;;;;14.73;5.72;;;;;;;;;;5017552;28;20026;-59
2021/09/10 10:02:42;;;;;;;17.17;7.47;;;;;;;;;;5020384;28;20037;-59
2021/09/10 10:05:08;;;;;;;7.25;6.55;;;;;;;;;;5014680;28;20380;-59
2021/09/10 10:07:45;;;;;;;9.60;6.25;;;;;;;;;;5019485;28;20488;-59
2021/09/10 10:10:11;;;;;;;7.90;6.22;;;;;;;;;;5022167;28;20032;-59
2021/09/10 10:12:39;;;;;;;22.45;8.82;;;;;;;;;;5012712;28;20030;-58
2021/09/10 10:15:24;;;;;;;9.90;6.55;;;;;;;;;;5016925;28;20148;-58
2021/09/10 10:17:50;;;;;;;13.75;9.82;;;;;;;;;;5019845;28;20028;-58
2021/09/10 10:20:34;;;;;;;6.35;5.35;;;;;;;;;;5008169;28;20040;-59
2021/09/10 10:23:00;;;;;;;11.35;5.25;;;;;;;;;;5012568;28;20087;-57
2021/09/10 10:25:27;;;;;;;22.48;7.97;;;;;;;;;;5013350;28;20029;-58
2021/09/10 10:27:52;;;;;;;16.63;4.95;;;;;;;;;;5007411;28;20452;-57
2021/09/10 10:30:18;;;;;;;13.18;6.20;;;;;;;;;;5017557;28;20556;-57
2021/09/10 10:32:47;;;;;;;6.65;4.68;;;;;;;;;;5017089;28;20099;-56
2021/09/10 10:35:30;;;;;;;7.20;6.10;;;;;;;;;;5017534;28;20021;-57
2021/09/10 10:38:02;;;;;;;7.90;5.88;;;;;;;;;;5018295;28;20022;-57
2021/09/10 10:40:38;;;;;;;15.50;6.93;;;;;;;;;;5016952;28;20025;-56
2021/09/10 10:43:05;;;;;;;7.82;4.50;;;;;;;;;;5011300;28;20907;-58
2021/09/10 10:45:42;;;;;;;14.15;5.57;;;;;;;;;;5009051;28;20021;-56
2021/09/10 10:48:26;;;;;;;11.98;5.47;;;;;;;;;;5005961;28;20041;-58
2021/09/10 10:50:52;;;;;;;5.55;4.55;;;;;;;;;;4996761;28;20105;-59
2021/09/10 10:53:19;;;;;;;9.48;5.57;;;;;;;;;;5006379;28;20097;-58
2021/09/10 10:55:44;;;;;;;8.52;5.68;;;;;;;;;;5016273;28;20184;-58
2021/09/10 10:58:22;;;;;;;4.25;3.47;;;;;;;;;;5006862;28;20497;-59
2021/09/10 11:00:49;;;;;;;6.82;4.57;;;;;;;;;;5005385;28;20031;-58
2021/09/10 11:03:14;;;;;;;12.40;6.32;;;;;;;;;;5001880;28;20038;-57
2021/09/10 11:05:47;;;;;;;7.30;5.75;;;;;;;;;;5005182;28;20696;-58
2021/09/10 11:08:16;;;;;;;5.90;5.30;;;;;;;;;;5010605;28;20026;-59
2021/09/10 11:10:41;;;;;;;7.15;5.18;;;;;;;;;;5016264;28;20104;-58
2021/09/10 11:13:07;;;;;;;6.50;3.95;;;;;;;;;;5014374;28;20098;-58
2021/09/10 11:15:33;;;;;;;8.80;6.60;;;;;;;;;;5004181;28;20048;-59
2021/09/10 11:17:59;;;;;;;11.55;7.13;;;;;;;;;;5017268;28;20021;-58
2021/09/10 11:20:35;;;;;;;13.30;5.15;;;;;;;;;;5014609;28;20492;-58
2021/09/10 11:23:01;;;;;;;17.67;7.10;;;;;;;;;;5009031;28;20027;-58
2021/09/10 11:25:26;;;;;;;9.43;4.80;;;;;;;;;;5017077;28;20025;-59
2021/09/10 11:27:52;;;;;;;15.30;5.85;;;;;;;;;;5009283;28;20032;-59
2021/09/10 11:30:19;;;;;;;12.88;4.22;;;;;;;;;;5013662;28;20026;-59
2021/09/10 11:32:44;;;;;;;7.15;5.15;;;;;;;;;;5015847;28;20030;-59
2021/09/10 11:35:15;;;;;;;7.85;4.75;;;;;;;;;;5012296;28;20037;-59
2021/09/10 11:37:49;;;;;;;11.52;3.95;;;;;;;;;;5013733;28;20025;-59
2021/09/10 11:40:14;;;;;;;5.70;4.90;;;;;;;;;;5007008;28;20017;-59
2021/09/10 11:42:41;;;;;;;8.63;4.28;;;;;;;;;;5012586;28;20388;-58
2021/09/10 11:45:08;;;;;;;10.18;5.15;;;;;;;;;;5008556;28;20075;-58
2021/09/10 11:47:34;;;;;;;6.30;4.97;;;;;;;;;;5012195;28;20028;-58
2021/09/10 11:50:00;;;;;;;10.57;6.90;;;;;;;;;;5009537;28;20429;-58
2021/09/10 11:52:43;;;;;;;7.03;4.10;;;;;;;;;;5009952;28;20071;-58
2021/09/10 11:55:13;;;;;;;8.80;4.63;;;;;;;;;;5016814;28;20033;-58
2021/09/10 11:57:39;;;;;;;8.10;4.47;;;;;;;;;;5014340;28;20026;-59
2021/09/10 12:00:06;;;;;;;10.15;4.78;;;;;;;;;;5007242;28;20084;-58
2021/09/10 12:02:33;;;;;;;6.28;4.22;;;;;;;;;;5012951;28;20026;-58
2021/09/10 12:05:00;;;;;;;7.22;5.25;;;;;;;;;;5011585;28;20057;-59
2021/09/10 12:07:29;;;;;;;6.75;5.65;;;;;;;;;;5007639;28;20493;-58
2021/09/10 12:09:55;;;;;;;5.22;3.95;;;;;;;;;;5015982;28;20024;-58
2021/09/10 12:12:29;;;;;;;8.77;4.88;;;;;;;;;;5011717;28;20021;-57
2021/09/10 12:14:57;;;;;;;8.48;5.28;;;;;;;;;;5007668;28;20049;-58
2021/09/10 12:17:37;;;;;;;9.60;6.15;;;;;;;;;;5005129;28;20022;-57
2021/09/10 12:20:02;;;;;;;4.78;3.80;;;;;;;;;;5012770;28;20029;-57
2021/09/10 12:22:49;;;;;;;12.60;4.45;;;;;;;;;;5007543;28;20096;-59
2021/09/10 12:27:50;;;;;;;7.05;3.65;;;;;;;;;;5007563;28;20038;-58
2021/09/10 12:30:15;;;;;;;9.43;5.38;;;;;;;;;;5009882;28;20032;-58
2021/09/10 12:32:41;;;;;;;4.85;3.42;;;;;;;;;;5012554;28;20018;-57
2021/09/10 12:35:06;;;;;;;10.05;5.32;;;;;;;;;;5010123;28;20163;-57
2021/09/10 12:37:32;;;;;;;5.63;3.58;;;;;;;;;;5012580;28;20480;-58
2021/09/10 12:39:57;;;;;;;8.13;3.83;;;;;;;;;;5017211;28;20034;-58
2021/09/10 12:42:23;;;;;;;10.90;4.35;;;;;;;;;;5017017;28;20030;-59
2021/09/10 12:44:49;;;;;;;5.22;2.90;;;;;;;;;;5019933;28;20646;-58
2021/09/10 12:47:14;;;;;;;3.45;2.70;;;;;;;;;;5014975;28;20061;-60
2021/09/10 12:49:40;;;;;;;8.88;5.45;;;;;;;;;;5011985;28;20025;-59
2021/09/10 12:52:05;;;;;;;6.60;4.40;;;;;;;;;;5008518;28;20662;-58
2021/09/10 12:54:32;;;;;;;10.45;7.00;;;;;;;;;;5009590;28;20054;-58
2021/09/10 12:56:58;;;;;;;5.90;3.70;;;;;;;;;;5006511;28;20029;-58
2021/09/10 12:59:23;;;;;;;6.07;5.10;;;;;;;;;;5013433;28;20045;-59
2021/09/10 13:01:48;;;;;;;10.05;5.70;;;;;;;;;;5007642;28;20033;-58
2021/09/10 13:04:15;;;;;;;5.53;3.60;;;;;;;;;;5014810;28;20262;-58
2021/09/10 13:06:40;;;;;;;13.00;4.88;;;;;;;;;;5015676;28;20037;-56
2021/09/10 13:09:06;;;;;;;6.72;4.00;;;;;;;;;;5008100;28;20488;-56
2021/09/10 13:11:31;;;;;;;10.07;5.40;;;;;;;;;;5012255;28;20027;-57
2021/09/10 13:13:58;;;;;;;9.18;4.90;;;;;;;;;;5013149;28;20010;-58
2021/09/10 13:16:24;;;;;;;3.17;2.55;;;;;;;;;;5006210;28;20053;-58
2021/09/10 13:18:49;;;;;;;6.70;5.18;;;;;;;;;;5005435;28;20061;-58
2021/09/10 13:21:14;;;;;;;4.45;3.38;;;;;;;;;;5009967;28;20527;-57
2021/09/10 13:23:39;;;;;;;5.22;4.28;;;;;;;;;;5012128;28;20468;-57
2021/09/10 13:26:05;;;;;;;10.05;3.83;;;;;;;;;;5014071;28;20044;-57
2021/09/10 13:28:30;;;;;;;8.00;4.20;;;;;;;;;;5005888;28;20021;-57
2021/09/10 13:30:55;;;;;;;3.80;3.50;;;;;;;;;;5014041;28;20018;-57
2021/09/10 13:33:21;;;;;;;5.00;4.30;;;;;;;;;;5014667;28;20124;-57
2021/09/10 13:35:46;;;;;;;8.75;6.78;;;;;;;;;;5013294;28;20022;-57
2021/09/10 13:38:11;;;;;;;6.22;3.45;;;;;;;;;;5018650;28;20022;-58
2021/09/10 13:40:37;;;;;;;7.45;3.90;;;;;;;;;;5014419;28;20022;-57
2021/09/10 13:43:03;;;;;;;4.68;2.60;;;;;;;;;;5014094;28;20026;-56
2021/09/10 13:45:28;;;;;;;3.55;3.13;;;;;;;;;;5012563;28;20032;-58
2021/09/10 13:47:54;;;;;;;16.10;4.72;;;;;;;;;;5016792;28;20029;-57
2021/09/10 13:50:20;;;;;;;6.18;4.32;;;;;;;;;;5018711;28;20473;-58
2021/09/10 13:52:46;;;;;;;10.23;4.88;;;;;;;;;;5018544;28;20024;-57
2021/09/10 13:55:11;;;;;;;6.40;3.53;;;;;;;;;;5019684;28;20801;-58
2021/09/10 13:57:36;;;;;;;7.70;4.63;;;;;;;;;;5014362;28;20034;-57
2021/09/10 14:00:02;;;;;;;4.05;2.97;;;;;;;;;;5017076;28;20086;-58
2021/09/10 14:02:27;;;;;;;6.15;3.53;;;;;;;;;;5012237;28;20365;-58
2021/09/10 14:04:54;;;;;;;4.38;3.97;;;;;;;;;;5014132;28;20053;-58
2021/09/10 14:07:19;;;;;;;3.10;1.65;;;;;;;;;;5015934;28;20521;-57
2021/09/10 14:09:45;;;;;;;11.63;5.95;;;;;;;;;;5014582;28;20112;-57
2021/09/10 14:12:10;;;;;;;11.15;4.80;;;;;;;;;;5011829;28;20026;-57
2021/09/10 14:14:36;;;;;;;9.20;3.60;;;;;;;;;;5017878;28;20021;-58
2021/09/10 14:17:02;;;;;;;6.40;4.05;;;;;;;;;;5015757;28;20025;-57
2021/09/10 14:19:27;;;;;;;3.78;3.33;;;;;;;;;;5013265;28;20090;-57
2021/09/10 14:21:54;;;;;;;8.55;4.32;;;;;;;;;;5015138;28;20500;-57
2021/09/10 14:24:19;;;;;;;2.92;2.40;;;;;;;;;;5013648;28;20029;-58
2021/09/10 14:26:45;;;;;;;8.57;4.45;;;;;;;;;;5015284;28;20040;-57